createdAt,value
2023-05-12T00:01:18.369Z,99.9
2023-05-12T00:05:25.795Z,99.9
2023-05-12T00:09:30.014Z,99.9
2023-05-12T00:13:34.082Z,99.9
2023-05-12T00:17:41.551Z,99.9
2023-05-12T00:29:54.212Z,99.9
2023-05-12T00:37:06.288Z,99.9
2023-05-12T00:39:08.361Z,99.9
2023-05-12T00:41:10.473Z,99.9
2023-05-12T00:43:12.620Z,99.9
2023-05-12T00:45:17.969Z,99.9
2023-05-12T00:47:20.071Z,99.9
2023-05-12T00:49:22.216Z,99.9
2023-05-12T00:53:32.589Z,99.9
2023-05-12T00:55:28.555Z,99.9
2023-05-12T00:57:30.608Z,99.9
2023-05-12T00:59:35.918Z,99.9
2023-05-12T01:03:40.270Z,99.9
2023-05-12T01:05:42.350Z,99.9
2023-05-12T01:07:44.477Z,99.9
2023-05-12T01:09:46.515Z,99.9
2023-05-12T01:11:48.676Z,99.9
2023-05-12T01:13:53.821Z,99.9
2023-05-12T01:15:55.982Z,99.9
2023-05-12T01:17:58.151Z,99.9
2023-05-12T01:20:00.339Z,99.9
2023-05-12T01:22:02.451Z,99.9
2023-05-12T01:24:04.571Z,99.9
2023-05-12T01:26:06.789Z,99.9
2023-05-12T01:30:14.306Z,99.9
2023-05-12T01:32:16.347Z,99.9
2023-05-12T01:33:19.063Z,99.9
2023-05-12T01:35:21.085Z,99.9
2023-05-12T01:37:23.262Z,99.9
2023-05-12T01:39:25.388Z,99.9
2023-05-12T01:43:32.790Z,99.9
2023-05-12T01:45:34.928Z,99.9
2023-05-12T01:49:39.129Z,99.9
2023-05-12T01:53:43.409Z,99.9
2023-05-12T01:55:48.798Z,99.9
2023-05-12T01:59:52.983Z,99.9
2023-05-12T02:08:01.454Z,99.9
2023-05-12T02:10:06.696Z,99.9
2023-05-12T02:18:15.095Z,99.9
2023-05-12T02:20:17.354Z,99.9
2023-05-12T02:22:19.355Z,99.9
2023-05-12T02:26:26.575Z,99.9
2023-05-12T02:28:28.712Z,99.9
2023-05-12T02:29:31.405Z,99.9
2023-05-12T02:33:35.594Z,99.9
2023-05-12T02:35:37.748Z,99.9
2023-05-12T02:37:43.000Z,99.9
2023-05-12T02:39:45.079Z,99.9
2023-05-12T02:41:47.192Z,99.9
2023-05-12T02:43:49.223Z,99.9
2023-05-12T02:45:51.404Z,99.9
2023-05-12T02:52:00.979Z,99.9
2023-05-12T02:54:03.108Z,99.9
2023-05-12T02:58:07.308Z,99.9
2023-05-12T03:12:25.356Z,99.9
2023-05-12T03:18:31.788Z,99.9
2023-05-12T03:20:37.148Z,99.9
2023-05-12T03:22:39.285Z,99.9
2023-05-12T03:24:41.436Z,99.9
2023-05-12T03:27:10.069Z,99.9
2023-05-12T03:37:23.703Z,99.9
2023-05-12T03:59:49.643Z,99.9
2023-05-12T04:01:54.941Z,99.9
2023-05-12T04:05:59.130Z,99.9
2023-05-12T04:08:01.272Z,99.9
2023-05-12T04:10:03.427Z,99.9
2023-05-12T04:12:05.429Z,99.9
2023-05-12T04:14:07.569Z,99.9
2023-05-12T04:16:13.009Z,99.9
2023-05-12T04:18:15.002Z,99.9
2023-05-12T04:21:19.764Z,99.9
2023-05-12T04:23:21.890Z,99.9
2023-05-12T04:25:23.921Z,99.9
2023-05-12T04:27:26.062Z,99.9
2023-05-12T04:35:37.933Z,99.9
2023-05-12T04:39:42.101Z,99.9
2023-05-12T04:41:44.155Z,99.9
2023-05-12T04:49:55.646Z,99.9
2023-05-12T04:56:01.785Z,99.9
2023-05-12T04:58:07.217Z,99.9
2023-05-12T05:10:21.362Z,99.9
2023-05-12T05:12:26.615Z,99.9
2023-05-12T05:14:28.810Z,99.9
2023-05-12T05:16:31.013Z,99.9
2023-05-12T05:17:33.659Z,99.9
2023-05-12T05:19:50.981Z,99.9
2023-05-12T05:23:39.753Z,99.9
2023-05-12T05:31:51.170Z,99.9
2023-05-12T05:33:53.169Z,99.9
2023-05-12T05:35:55.174Z,99.9
2023-05-12T05:37:57.205Z,99.9
2023-05-12T05:40:02.471Z,99.9
2023-05-12T05:42:04.462Z,99.9
2023-05-12T05:44:06.514Z,99.9
2023-05-12T05:46:08.556Z,99.9
2023-05-12T05:48:10.667Z,99.9
2023-05-12T05:50:12.662Z,99.9
2023-05-12T05:52:14.715Z,99.9
2023-05-12T05:54:19.913Z,99.9
2023-05-12T05:56:21.951Z,99.9
2023-05-12T05:58:24.010Z,99.9
2023-05-12T06:00:26.045Z,99.9
2023-05-12T06:02:28.244Z,99.9
2023-05-12T06:04:30.263Z,99.9
2023-05-12T06:06:32.244Z,99.9
2023-05-12T06:08:37.424Z,99.9
2023-05-12T06:10:39.498Z,99.9
2023-05-12T06:13:44.161Z,99.9
2023-05-12T06:15:46.201Z,99.9
2023-05-12T06:17:48.316Z,99.9
2023-05-12T06:19:50.318Z,99.9
2023-05-12T06:21:55.536Z,99.9
2023-05-12T06:32:05.839Z,99.9
2023-05-12T06:34:07.840Z,99.9
2023-05-12T06:36:13.074Z,99.9
2023-05-12T06:38:15.126Z,99.9
2023-05-12T06:42:19.210Z,99.9
2023-05-12T06:46:23.403Z,99.9
2023-05-12T06:50:30.608Z,99.9
2023-05-12T06:52:32.668Z,99.9
2023-05-12T07:04:48.217Z,99.9
2023-05-12T07:06:50.235Z,99.9
2023-05-12T07:08:52.331Z,99.9
2023-05-12T07:17:30.285Z,99.9
2023-05-12T07:31:47.957Z,99.9
2023-05-12T07:39:56.232Z,99.9
2023-05-12T07:46:05.538Z,99.9
2023-05-12T07:48:07.661Z,99.9
2023-05-12T07:50:09.720Z,99.9
2023-05-12T07:52:11.773Z,99.9
2023-05-12T07:56:15.961Z,99.9
2023-05-12T07:58:17.995Z,99.9
2023-05-12T08:00:23.203Z,99.9
2023-05-12T08:02:25.389Z,99.9
2023-05-12T08:05:29.982Z,99.9
2023-05-12T08:07:32.042Z,99.9
2023-05-12T08:09:34.102Z,99.9
2023-05-12T08:11:36.178Z,99.9
2023-05-12T08:13:41.388Z,99.9
2023-05-12T08:15:43.475Z,99.9
2023-05-12T08:17:45.564Z,99.9
2023-05-12T08:19:47.609Z,99.9
2023-05-12T08:21:49.706Z,99.9
2023-05-12T08:23:51.775Z,99.9
2023-05-12T08:44:18.823Z,99.9
2023-05-12T08:46:20.948Z,99.9
2023-05-12T08:48:23.012Z,99.9
2023-05-12T08:50:25.074Z,99.9
2023-05-12T08:52:27.187Z,99.9
2023-05-12T08:54:29.237Z,99.9
2023-05-12T08:58:41.734Z,99.9
2023-05-12T09:00:38.640Z,99.9
2023-05-12T09:01:41.210Z,99.9
2023-05-12T09:03:43.306Z,99.9
2023-05-12T09:05:45.372Z,99.9
2023-05-12T09:07:47.430Z,99.9
2023-05-12T09:09:52.654Z,99.9
2023-05-12T09:11:54.758Z,99.9
2023-05-12T09:13:56.821Z,99.9
2023-05-12T09:18:01.042Z,99.9
2023-05-12T09:24:10.540Z,99.9
2023-05-12T09:26:12.422Z,99.9
2023-05-12T09:28:14.561Z,99.9
2023-05-12T09:30:16.578Z,99.9
2023-05-12T09:38:28.032Z,99.9
2023-05-12T09:42:32.173Z,99.9
2023-05-12T09:44:34.242Z,99.9
2023-05-12T09:46:36.392Z,99.9
2023-05-12T09:48:38.425Z,99.9
2023-05-12T09:50:47.293Z,99.9
2023-05-12T09:52:45.710Z,99.9
2023-05-12T09:54:47.756Z,99.9
2023-05-12T09:56:49.882Z,99.9
2023-05-12T09:57:52.465Z,99.9
2023-05-12T10:01:56.624Z,99.9
2023-05-12T10:08:05.989Z,99.9
2023-05-12T10:16:14.253Z,99.9
2023-05-12T10:22:24.210Z,99.9
2023-05-12T10:26:28.351Z,99.9
2023-05-12T10:28:30.417Z,99.9
2023-05-12T10:30:32.513Z,99.9
2023-05-12T10:32:34.583Z,99.9
2023-05-12T10:34:39.806Z,99.9
2023-05-12T10:38:43.964Z,99.9
2023-05-12T10:42:48.114Z,99.9
2023-05-12T10:44:50.167Z,99.9
2023-05-12T10:46:52.427Z,99.9
2023-05-12T10:48:57.475Z,99.9
2023-05-12T10:50:59.526Z,99.9
2023-05-12T10:53:01.620Z,99.9
2023-05-12T10:55:30.304Z,99.9
2023-05-12T10:57:32.584Z,99.9
2023-05-12T10:59:34.807Z,99.9
2023-05-12T11:01:41.670Z,99.9
2023-05-12T11:03:43.762Z,99.9
2023-05-12T11:05:45.974Z,99.9
2023-05-12T11:07:47.553Z,99.9
2023-05-12T11:11:52.289Z,99.9
2023-05-12T11:13:53.503Z,99.9
2023-05-12T11:15:58.718Z,99.9
2023-05-12T11:18:00.845Z,99.9
2023-05-12T11:20:02.851Z,99.9
2023-05-12T11:22:04.936Z,99.9
2023-05-12T11:24:06.977Z,99.9
2023-05-12T11:26:09.030Z,99.9
2023-05-12T11:28:11.064Z,99.9
2023-05-12T11:30:16.342Z,99.9
2023-05-12T11:36:22.532Z,99.9
2023-05-12T11:38:24.591Z,99.9
2023-05-12T11:40:26.638Z,99.9
2023-05-12T11:42:28.699Z,99.9
2023-05-12T11:46:35.947Z,99.9
2023-05-12T11:48:37.996Z,99.9
2023-05-12T11:59:54.058Z,99.9
2023-05-12T12:01:56.177Z,99.9
2023-05-12T12:06:00.259Z,99.9
2023-05-12T12:12:09.614Z,99.9
2023-05-12T12:16:14.849Z,99.9
2023-05-12T12:18:15.810Z,99.9
2023-05-12T12:20:17.876Z,99.9
2023-05-12T12:22:19.912Z,99.9
2023-05-12T12:24:21.990Z,99.9
2023-05-12T12:26:27.205Z,99.9
2023-05-12T12:28:29.283Z,99.9
2023-05-12T12:32:33.459Z,99.9
2023-05-12T12:34:35.474Z,99.9
2023-05-12T12:38:39.588Z,99.9
2023-05-12T12:40:44.831Z,99.9
2023-05-12T12:42:46.847Z,99.9
2023-05-12T12:44:48.915Z,99.9
2023-05-12T12:45:51.514Z,99.9
2023-05-12T12:47:53.592Z,99.9
2023-05-12T12:49:55.608Z,99.9
2023-05-12T12:51:57.676Z,99.9
2023-05-12T12:54:02.870Z,99.9
2023-05-12T12:56:04.944Z,99.9
2023-05-12T12:58:06.970Z,99.9
2023-05-12T13:00:09.061Z,99.9
2023-05-12T13:02:11.118Z,99.9
2023-05-12T13:04:13.130Z,99.9
2023-05-12T13:06:15.188Z,99.9
2023-05-12T13:08:20.409Z,99.9
2023-05-12T13:10:22.416Z,99.9
2023-05-12T13:12:24.488Z,99.9
2023-05-12T13:14:26.537Z,99.9
2023-05-12T13:18:30.660Z,99.9
2023-05-12T13:22:37.908Z,99.9
2023-05-12T13:24:39.956Z,99.9
2023-05-12T13:26:41.992Z,99.9
2023-05-12T13:28:44.050Z,99.9
2023-05-12T13:30:46.139Z,99.9
2023-05-12T13:34:50.182Z,99.9
2023-05-12T13:36:55.374Z,99.9
2023-05-12T13:38:57.425Z,99.9
2023-05-12T13:40:59.494Z,99.9
2023-05-12T13:42:02.107Z,99.9
2023-05-12T13:46:06.229Z,99.9
2023-05-12T13:48:08.253Z,99.9
2023-05-12T13:50:13.451Z,99.9
2023-05-12T13:52:15.480Z,99.9
2023-05-12T13:54:17.509Z,99.9
2023-05-12T13:56:19.556Z,99.9
2023-05-12T13:58:21.620Z,99.9
2023-05-12T14:00:23.608Z,99.9
2023-05-12T14:02:25.709Z,99.9
2023-05-12T14:04:30.898Z,99.9
2023-05-12T14:06:32.903Z,99.9
2023-05-12T14:08:34.959Z,99.9
2023-05-12T14:10:36.990Z,99.9
2023-05-12T14:12:39.040Z,99.9
2023-05-12T14:14:41.028Z,99.9
2023-05-12T14:16:43.134Z,99.9
2023-05-12T14:18:48.328Z,99.9
2023-05-12T14:24:54.333Z,99.8
2023-05-12T14:26:56.344Z,99.7
2023-05-12T14:28:58.396Z,98.1
2023-05-12T14:31:00.367Z,96.8
2023-05-12T14:33:05.614Z,95.3
2023-05-12T14:35:08.363Z,95.3
2023-05-12T14:37:09.562Z,93.7
2023-05-12T14:39:37.989Z,92.5
2023-05-12T14:41:39.967Z,91.8
2023-05-12T14:43:41.987Z,91.3
2023-05-12T14:45:47.165Z,91.1
2023-05-12T14:49:51.120Z,92.5
2023-05-12T14:51:53.119Z,93.1
2023-05-12T14:53:55.096Z,94.7
2023-05-12T14:57:59.074Z,97.5
2023-05-12T15:00:04.302Z,98.8
2023-05-12T15:08:12.323Z,99.9
2023-05-12T15:10:14.379Z,99.9
2023-05-12T15:12:17.598Z,99.9
2023-05-12T15:14:21.606Z,99.9
2023-05-12T15:16:23.650Z,99.9
2023-05-12T15:18:25.727Z,99.9
2023-05-12T15:20:27.727Z,99.9
2023-05-12T15:22:29.776Z,99.9
2023-05-12T15:24:31.865Z,99.9
2023-05-12T15:33:45.854Z,99.9
2023-05-12T15:35:47.884Z,99.8
2023-05-12T15:39:51.967Z,99
2023-05-12T15:41:57.204Z,97.4
2023-05-12T15:46:01.299Z,96.7
2023-05-12T15:48:03.312Z,96.1
2023-05-12T16:00:18.556Z,95
2023-05-12T16:04:22.539Z,95.9
2023-05-12T16:06:24.509Z,94.8
2023-05-12T16:10:31.649Z,91.6
2023-05-12T16:12:33.605Z,91.8
2023-05-12T16:14:35.614Z,91.4
2023-05-12T16:18:39.618Z,91.1
2023-05-12T16:20:41.605Z,90.6
2023-05-12T16:22:43.602Z,90.5
2023-05-12T16:24:48.787Z,89.9
2023-05-12T16:26:50.808Z,89.6
2023-05-12T16:29:55.375Z,89.4
2023-05-12T16:40:09.596Z,69.6
2023-05-12T16:42:11.445Z,69.7
2023-05-12T16:44:13.470Z,70.2
2023-05-12T16:46:15.582Z,72
2023-05-12T16:48:17.420Z,72.2
2023-05-12T16:50:19.586Z,73.3
2023-05-12T16:56:30.286Z,78.6
2023-05-12T16:58:32.365Z,80
2023-05-12T17:00:34.368Z,82.1
2023-05-12T17:02:36.552Z,83.4
2023-05-12T17:04:38.456Z,84.7
2023-05-12T17:06:43.688Z,86.1
2023-05-12T17:08:45.765Z,87.4
2023-05-12T17:10:47.774Z,88
2023-05-12T17:12:49.863Z,89
2023-05-12T17:16:53.995Z,89.8
2023-05-12T17:25:05.424Z,92.3
2023-05-12T17:26:08.032Z,92.7
2023-05-12T17:28:10.079Z,92.9
2023-05-12T17:32:14.245Z,92.9
2023-05-12T17:34:19.455Z,93.1
2023-05-12T17:36:21.538Z,93.1
2023-05-12T17:38:23.620Z,93.1
2023-05-12T17:42:27.751Z,93.5
2023-05-12T17:44:29.855Z,93.6
2023-05-12T17:48:37.132Z,93.9
2023-05-12T17:52:41.333Z,93.8
2023-05-12T18:00:49.649Z,94.3
2023-05-12T18:02:54.919Z,94.6
2023-05-12T18:04:56.907Z,94.8
2023-05-12T18:06:59.035Z,94.9
2023-05-12T18:09:01.103Z,94.9
2023-05-12T18:11:03.178Z,95
2023-05-12T18:17:12.643Z,96.3
2023-05-12T18:19:14.706Z,96.7
2023-05-12T18:25:47.371Z,98.3
2023-05-12T18:27:49.485Z,98.7
2023-05-12T18:29:54.693Z,99.4
2023-05-12T18:31:56.831Z,99.6
2023-05-12T18:33:58.884Z,99.7
2023-05-12T18:36:00.973Z,99.8
2023-05-12T18:38:03.021Z,99.9
2023-05-12T18:40:05.168Z,99.9
2023-05-12T18:42:07.251Z,99.9
2023-05-12T18:44:12.462Z,99.9
2023-05-12T18:46:14.593Z,99.9
2023-05-12T18:48:16.640Z,99.9
2023-05-12T18:50:18.700Z,99.9
2023-05-12T18:52:20.813Z,99.9
2023-05-12T18:54:22.850Z,99.9
2023-05-12T18:56:24.971Z,99.9
2023-05-12T18:58:30.223Z,99.9
2023-05-12T19:00:32.333Z,99.9
2023-05-12T19:04:36.483Z,99.9
2023-05-12T19:08:40.667Z,99.9
2023-05-12T19:12:48.036Z,99.9
2023-05-12T19:17:54.843Z,99.9
2023-05-12T19:19:56.917Z,99.9
2023-05-12T19:24:01.083Z,99.9
2023-05-12T19:30:10.503Z,99.9
2023-05-12T19:34:14.689Z,99.9
2023-05-12T19:38:18.880Z,99.9
2023-05-12T19:40:24.143Z,99.9
2023-05-12T19:42:26.208Z,99.9
2023-05-12T19:44:30.080Z,99.9
2023-05-12T19:48:32.483Z,99.9
2023-05-12T19:52:36.676Z,99.9
2023-05-12T19:54:41.904Z,99.9
2023-05-12T19:56:44.036Z,99.9
2023-05-12T19:58:46.122Z,99.9
2023-05-12T20:00:48.259Z,99.9
2023-05-12T20:04:52.400Z,99.9
2023-05-12T20:06:54.522Z,99.9
2023-05-12T20:08:59.755Z,99.9
2023-05-12T20:13:03.907Z,99.9
2023-05-12T20:14:06.509Z,99.9
2023-05-12T20:16:08.621Z,99.9
2023-05-12T20:18:10.765Z,99.9
2023-05-12T20:20:12.788Z,99.9
2023-05-12T20:22:18.052Z,99.9
2023-05-12T20:38:37.923Z,99.9
2023-05-12T20:40:40.013Z,99.9
2023-05-12T20:42:42.082Z,99.9
2023-05-12T20:44:44.178Z,99.9
2023-05-12T20:46:46.367Z,99.9
2023-05-12T20:48:48.369Z,99.9
2023-05-12T20:50:53.614Z,99.9
2023-05-12T20:52:55.683Z,99.9
2023-05-12T20:54:57.794Z,99.9
2023-05-12T20:56:59.894Z,99.9
2023-05-12T20:59:01.963Z,99.9
2023-05-12T21:01:04.052Z,99.9
2023-05-12T21:03:06.256Z,99.9
2023-05-12T21:05:11.398Z,99.9
2023-05-12T21:07:13.468Z,99.9
2023-05-12T21:09:15.583Z,99.9
2023-05-12T21:12:20.270Z,99.9
2023-05-12T21:14:22.376Z,99.9
2023-05-12T21:20:31.796Z,99.9
2023-05-12T21:22:33.901Z,99.9
2023-05-12T21:24:35.988Z,99.9
2023-05-12T21:28:40.197Z,99.9
2023-05-12T21:34:49.585Z,99.9
2023-05-12T21:36:51.674Z,99.9
2023-05-12T21:38:53.795Z,99.9
2023-05-12T21:40:55.874Z,99.9
2023-05-12T21:42:57.953Z,99.9
2023-05-12T21:45:00.104Z,99.9
2023-05-12T21:47:05.286Z,99.9
2023-05-12T21:49:07.348Z,99.9
2023-05-12T21:51:09.494Z,99.9
2023-05-12T21:55:13.623Z,99.9
2023-05-12T22:01:23.154Z,99.9
2023-05-12T22:03:25.205Z,99.9
2023-05-12T22:09:57.930Z,99.9
2023-05-12T22:12:00.032Z,99.9
2023-05-12T22:24:15.721Z,99.9
2023-05-12T22:26:17.803Z,99.9
2023-05-12T22:32:27.185Z,99.9
2023-05-12T22:38:33.466Z,99.9
2023-05-12T22:40:35.530Z,99.9
2023-05-12T22:42:40.755Z,99.9
2023-05-12T22:44:44.408Z,99.9
2023-05-12T22:46:46.499Z,99.9
2023-05-12T22:48:48.536Z,99.9
2023-05-12T22:50:50.646Z,99.9
2023-05-12T22:52:52.685Z,99.9
2023-05-12T23:01:04.205Z,99.9
2023-05-12T23:02:06.780Z,99.9
2023-05-12T23:08:13.068Z,99.9
2023-05-12T23:10:18.303Z,99.9
2023-05-12T23:12:20.384Z,99.9
2023-05-12T23:14:22.472Z,99.9
2023-05-12T23:16:24.580Z,99.9
2023-05-12T23:20:28.786Z,99.9
2023-05-12T23:22:30.808Z,99.9
2023-05-12T23:32:44.522Z,99.9
2023-05-12T23:34:46.469Z,99.9
2023-05-12T23:38:53.775Z,99.9
2023-05-12T23:58:18.267Z,99.9
